Etusivu
METAR-TAF:

METAR-TAF

Lentoasemat :

Kuningas Abdilazizin kansainvälinen lentoasema

Jedda, Saudi-Arabia

Leveyspiiri: 21-42N, Pituuspiiri: 039-11E, korkeus merenpinnasta: 15 m

Tämänhetkinen sää

Tämä raportti tehtiin 37 minuuttia sitten, kello 04.00 UTC
Tuuli 6 kn luoteesta
Lämpötila 31°C
Kosteus 75%
Ilmanpaine 1003 hPa
Näkyvyys 10 km tai enemmän
ei pilviä alle 1500 m:ssä eikä cumulonimbus-pilviä

METAR: OEJN 220400Z 31006KT CAVOK 31/26 Q1003 NOSIG

Aika: 07:37 (04:37 UTC)

Sääennuste

Tämä raportti tehtiin 5 tuntia ja 37 minuuttia sitten, kello 23.00 UTC
Ennuste voimassa 22. päivästä klo 00 UTC - 23. päivään klo 06 UTC
Tuuli 3 kn eri suunnista
Näkyvyys 10 km tai enemmän
ei pilviä alle 1500 m:ssä eikä cumulonimbus-pilviä
Tulossa
22. päivästä klo 06 UTC - 22. päivään klo 08 UTC
Tuuli 15 kn lännestä/luoteesta

TAF: OEJN 212300Z 2200/2306 VRB03KT CAVOK BECMG 2206/2208 30015KT

Säähavainnot ja -ennusteet yli 4000 lentoasemalta (METAR- ja TAF-raportit).

Käytössä olevat sääasemat on merkitty karttaan keltaisilla ja punaisilla pisteillä.

Aseta hiiri pisteen päälle nähdäksesi sääaseman nimen.

Klikkaa sitten nähdäksesi säähavainnot ja -ennusteet.

Kartan vaihtaminen: klikkaa mustalla rastilla varustettuja vihreitä pisteitä, niin voit zoomata sisään; viivalla varustettua vihreää pistettä, niin voit zoomata ulos tai vihreitä nuolia, niin pääset viereisille kartoille.


METAR-TAF: